sensor_id;sensor_type;location;lat;lon;timestamp;temperature;humidity
18894;DHT22;9579;49.488;8.226;2023-06-22T00:01:40;24.70;99.90
18894;DHT22;9579;49.488;8.226;2023-06-22T00:04:27;24.80;99.90
18894;DHT22;9579;49.488;8.226;2023-06-22T00:07:14;24.80;99.90
18894;DHT22;9579;49.488;8.226;2023-06-22T00:10:03;24.80;99.90
18894;DHT22;9579;49.488;8.226;2023-06-22T00:12:51;24.70;99.90
18894;DHT22;9579;49.488;8.226;2023-06-22T00:15:39;24.60;99.90
18894;DHT22;9579;49.488;8.226;2023-06-22T00:18:27;24.60;99.90
18894;DHT22;9579;49.488;8.226;2023-06-22T00:21:16;24.70;99.90
18894;DHT22;9579;49.488;8.226;2023-06-22T00:24:06;24.80;99.90
18894;DHT22;9579;49.488;8.226;2023-06-22T00:26:54;24.90;99.90
18894;DHT22;9579;49.488;8.226;2023-06-22T00:29:41;25.00;99.90
18894;DHT22;9579;49.488;8.226;2023-06-22T00:32:28;24.90;99.90
18894;DHT22;9579;49.488;8.226;2023-06-22T00:35:15;25.00;99.90
18894;DHT22;9579;49.488;8.226;2023-06-22T00:38:02;24.90;99.90
18894;DHT22;9579;49.488;8.226;2023-06-22T00:40:50;24.80;99.90
18894;DHT22;9579;49.488;8.226;2023-06-22T00:43:39;24.70;99.90
18894;DHT22;9579;49.488;8.226;2023-06-22T00:46:27;24.60;99.90
18894;DHT22;9579;49.488;8.226;2023-06-22T00:49:14;24.60;99.90
18894;DHT22;9579;49.488;8.226;2023-06-22T00:52:02;24.50;99.90
18894;DHT22;9579;49.488;8.226;2023-06-22T00:54:49;24.50;99.90
18894;DHT22;9579;49.488;8.226;2023-06-22T00:57:37;24.40;99.90
18894;DHT22;9579;49.488;8.226;2023-06-22T01:00:25;24.50;99.90
18894;DHT22;9579;49.488;8.226;2023-06-22T01:03:12;24.40;99.90
18894;DHT22;9579;49.488;8.226;2023-06-22T01:06:02;24.40;99.90
18894;DHT22;9579;49.488;8.226;2023-06-22T01:09:01;24.30;99.90
18894;DHT22;9579;49.488;8.226;2023-06-22T01:11:54;24.20;99.90
18894;DHT22;9579;49.488;8.226;2023-06-22T01:14:43;24.10;99.90
18894;DHT22;9579;49.488;8.226;2023-06-22T01:17:34;24.00;99.90
18894;DHT22;9579;49.488;8.226;2023-06-22T01:20:22;24.00;99.90
18894;DHT22;9579;49.488;8.226;2023-06-22T01:23:17;24.00;99.90
18894;DHT22;9579;49.488;8.226;2023-06-22T01:26:16;23.90;99.90
18894;DHT22;9579;49.488;8.226;2023-06-22T01:29:06;23.90;99.90
18894;DHT22;9579;49.488;8.226;2023-06-22T01:31:56;23.90;99.90
18894;DHT22;9579;49.488;8.226;2023-06-22T01:34:44;23.90;99.90
18894;DHT22;9579;49.488;8.226;2023-06-22T01:37:36;24.00;99.90
18894;DHT22;9579;49.488;8.226;2023-06-22T01:40:24;23.90;99.90
18894;DHT22;9579;49.488;8.226;2023-06-22T01:43:12;23.90;99.90
18894;DHT22;9579;49.488;8.226;2023-06-22T01:46:02;23.90;99.90
18894;DHT22;9579;49.488;8.226;2023-06-22T01:48:50;23.90;99.90
18894;DHT22;9579;49.488;8.226;2023-06-22T01:51:37;23.80;99.90
18894;DHT22;9579;49.488;8.226;2023-06-22T01:54:24;23.80;99.90
18894;DHT22;9579;49.488;8.226;2023-06-22T01:57:11;23.70;99.90
18894;DHT22;9579;49.488;8.226;2023-06-22T02:00:00;23.70;99.90
18894;DHT22;9579;49.488;8.226;2023-06-22T02:02:53;23.70;99.90
18894;DHT22;9579;49.488;8.226;2023-06-22T02:05:47;23.60;99.90
18894;DHT22;9579;49.488;8.226;2023-06-22T02:08:39;23.60;99.90
18894;DHT22;9579;49.488;8.226;2023-06-22T02:11:28;23.50;99.90
18894;DHT22;9579;49.488;8.226;2023-06-22T02:14:16;23.50;99.90
18894;DHT22;9579;49.488;8.226;2023-06-22T02:17:03;23.40;99.90
18894;DHT22;9579;49.488;8.226;2023-06-22T02:19:54;23.50;99.90
18894;DHT22;9579;49.488;8.226;2023-06-22T02:22:41;23.30;99.90
18894;DHT22;9579;49.488;8.226;2023-06-22T02:25:28;23.60;99.90
18894;DHT22;9579;49.488;8.226;2023-06-22T02:28:16;23.40;99.90
18894;DHT22;9579;49.488;8.226;2023-06-22T02:31:03;23.30;99.90
18894;DHT22;9579;49.488;8.226;2023-06-22T02:33:50;23.30;99.90
18894;DHT22;9579;49.488;8.226;2023-06-22T02:36:38;23.30;99.90
18894;DHT22;9579;49.488;8.226;2023-06-22T02:39:25;23.20;99.90
18894;DHT22;9579;49.488;8.226;2023-06-22T02:42:12;23.20;99.90
18894;DHT22;9579;49.488;8.226;2023-06-22T02:45:00;23.30;99.90
18894;DHT22;9579;49.488;8.226;2023-06-22T02:47:47;23.20;99.90
18894;DHT22;9579;49.488;8.226;2023-06-22T02:50:34;23.20;99.90
18894;DHT22;9579;49.488;8.226;2023-06-22T02:53:23;22.70;99.90
18894;DHT22;9579;49.488;8.226;2023-06-22T02:56:10;22.50;99.90
18894;DHT22;9579;49.488;8.226;2023-06-22T02:58:58;22.70;99.90
18894;DHT22;9579;49.488;8.226;2023-06-22T03:01:47;22.80;99.90
18894;DHT22;9579;49.488;8.226;2023-06-22T03:04:34;22.80;99.90
18894;DHT22;9579;49.488;8.226;2023-06-22T03:07:22;22.80;99.90
18894;DHT22;9579;49.488;8.226;2023-06-22T03:10:12;22.60;99.90
18894;DHT22;9579;49.488;8.226;2023-06-22T03:12:59;22.80;99.90
18894;DHT22;9579;49.488;8.226;2023-06-22T03:15:46;22.70;99.90
18894;DHT22;9579;49.488;8.226;2023-06-22T03:18:33;22.70;99.90
18894;DHT22;9579;49.488;8.226;2023-06-22T03:21:22;22.60;99.90
18894;DHT22;9579;49.488;8.226;2023-06-22T03:24:09;22.60;99.90
18894;DHT22;9579;49.488;8.226;2023-06-22T03:26:58;22.60;99.90
18894;DHT22;9579;49.488;8.226;2023-06-22T03:29:46;22.60;99.90
18894;DHT22;9579;49.488;8.226;2023-06-22T03:32:33;22.60;99.90
18894;DHT22;9579;49.488;8.226;2023-06-22T03:35:20;22.60;99.90
18894;DHT22;9579;49.488;8.226;2023-06-22T03:38:07;22.60;99.90
18894;DHT22;9579;49.488;8.226;2023-06-22T03:40:54;22.80;99.90
18894;DHT22;9579;49.488;8.226;2023-06-22T03:43:43;22.50;99.90
18894;DHT22;9579;49.488;8.226;2023-06-22T03:46:30;22.40;99.90
18894;DHT22;9579;49.488;8.226;2023-06-22T03:49:17;22.30;99.90
18894;DHT22;9579;49.488;8.226;2023-06-22T03:52:05;22.30;99.90
18894;DHT22;9579;49.488;8.226;2023-06-22T03:54:52;22.20;99.90
18894;DHT22;9579;49.488;8.226;2023-06-22T03:57:39;22.30;99.90
18894;DHT22;9579;49.488;8.226;2023-06-22T04:00:27;22.30;99.90
18894;DHT22;9579;49.488;8.226;2023-06-22T04:03:15;22.20;99.90
18894;DHT22;9579;49.488;8.226;2023-06-22T04:06:04;22.30;99.90
18894;DHT22;9579;49.488;8.226;2023-06-22T04:08:51;22.20;99.90
18894;DHT22;9579;49.488;8.226;2023-06-22T04:11:38;22.30;99.90
18894;DHT22;9579;49.488;8.226;2023-06-22T04:14:25;22.30;99.90
18894;DHT22;9579;49.488;8.226;2023-06-22T04:17:14;22.40;99.90
18894;DHT22;9579;49.488;8.226;2023-06-22T04:20:01;22.40;99.90
18894;DHT22;9579;49.488;8.226;2023-06-22T04:22:48;22.40;99.90
18894;DHT22;9579;49.488;8.226;2023-06-22T04:25:35;22.40;99.90
18894;DHT22;9579;49.488;8.226;2023-06-22T04:28:22;22.50;99.90
18894;DHT22;9579;49.488;8.226;2023-06-22T04:31:09;22.50;99.90
18894;DHT22;9579;49.488;8.226;2023-06-22T04:33:59;22.60;99.90
18894;DHT22;9579;49.488;8.226;2023-06-22T04:36:52;22.60;99.90
18894;DHT22;9579;49.488;8.226;2023-06-22T04:39:39;22.70;99.90
18894;DHT22;9579;49.488;8.226;2023-06-22T04:42:26;22.80;99.90
18894;DHT22;9579;49.488;8.226;2023-06-22T04:45:13;22.90;99.90
18894;DHT22;9579;49.488;8.226;2023-06-22T04:48:00;22.90;99.90
18894;DHT22;9579;49.488;8.226;2023-06-22T04:50:49;22.90;99.90
18894;DHT22;9579;49.488;8.226;2023-06-22T04:53:36;23.00;99.90
18894;DHT22;9579;49.488;8.226;2023-06-22T04:56:23;23.00;99.90
18894;DHT22;9579;49.488;8.226;2023-06-22T04:59:15;23.10;99.90
18894;DHT22;9579;49.488;8.226;2023-06-22T05:02:04;23.30;99.90
18894;DHT22;9579;49.488;8.226;2023-06-22T05:04:52;23.30;99.90
18894;DHT22;9579;49.488;8.226;2023-06-22T05:07:44;23.20;99.90
18894;DHT22;9579;49.488;8.226;2023-06-22T05:10:33;23.30;99.90
18894;DHT22;9579;49.488;8.226;2023-06-22T05:13:20;23.40;99.90
18894;DHT22;9579;49.488;8.226;2023-06-22T05:16:12;23.50;99.90
18894;DHT22;9579;49.488;8.226;2023-06-22T05:18:59;23.60;99.90
18894;DHT22;9579;49.488;8.226;2023-06-22T05:21:47;23.70;99.90
18894;DHT22;9579;49.488;8.226;2023-06-22T05:24:35;23.80;99.90
18894;DHT22;9579;49.488;8.226;2023-06-22T05:27:22;23.90;99.90
18894;DHT22;9579;49.488;8.226;2023-06-22T05:30:10;24.00;99.90
18894;DHT22;9579;49.488;8.226;2023-06-22T05:32:57;24.20;99.90
18894;DHT22;9579;49.488;8.226;2023-06-22T05:35:44;24.30;99.90
18894;DHT22;9579;49.488;8.226;2023-06-22T05:38:31;24.50;99.90
18894;DHT22;9579;49.488;8.226;2023-06-22T05:41:19;24.60;99.90
18894;DHT22;9579;49.488;8.226;2023-06-22T05:44:06;24.80;99.90
18894;DHT22;9579;49.488;8.226;2023-06-22T05:46:53;24.70;99.90
18894;DHT22;9579;49.488;8.226;2023-06-22T05:49:40;24.80;99.90
18894;DHT22;9579;49.488;8.226;2023-06-22T05:52:27;24.90;99.90
18894;DHT22;9579;49.488;8.226;2023-06-22T05:55:15;25.00;99.90
18894;DHT22;9579;49.488;8.226;2023-06-22T05:58:05;25.20;99.90
18894;DHT22;9579;49.488;8.226;2023-06-22T06:00:52;25.40;99.90
18894;DHT22;9579;49.488;8.226;2023-06-22T06:03:39;25.50;99.90
18894;DHT22;9579;49.488;8.226;2023-06-22T06:06:26;25.50;99.90
18894;DHT22;9579;49.488;8.226;2023-06-22T06:09:14;25.70;99.90
18894;DHT22;9579;49.488;8.226;2023-06-22T06:12:01;25.90;99.90
18894;DHT22;9579;49.488;8.226;2023-06-22T06:14:50;26.00;99.90
18894;DHT22;9579;49.488;8.226;2023-06-22T06:17:46;26.10;99.90
18894;DHT22;9579;49.488;8.226;2023-06-22T06:20:33;26.30;99.90
18894;DHT22;9579;49.488;8.226;2023-06-22T06:23:20;26.40;99.90
18894;DHT22;9579;49.488;8.226;2023-06-22T06:26:07;26.60;99.90
18894;DHT22;9579;49.488;8.226;2023-06-22T06:28:55;26.70;99.90
18894;DHT22;9579;49.488;8.226;2023-06-22T06:31:43;26.90;99.90
18894;DHT22;9579;49.488;8.226;2023-06-22T06:34:30;27.10;99.90
18894;DHT22;9579;49.488;8.226;2023-06-22T06:37:17;27.20;99.90
18894;DHT22;9579;49.488;8.226;2023-06-22T06:40:06;27.30;99.90
18894;DHT22;9579;49.488;8.226;2023-06-22T06:42:55;27.30;99.90
18894;DHT22;9579;49.488;8.226;2023-06-22T06:45:42;27.40;99.90
18894;DHT22;9579;49.488;8.226;2023-06-22T06:48:31;27.30;99.90
18894;DHT22;9579;49.488;8.226;2023-06-22T06:51:18;27.50;99.90
18894;DHT22;9579;49.488;8.226;2023-06-22T06:54:05;27.80;99.90
18894;DHT22;9579;49.488;8.226;2023-06-22T06:56:52;27.80;99.90
18894;DHT22;9579;49.488;8.226;2023-06-22T06:59:39;27.90;99.90
18894;DHT22;9579;49.488;8.226;2023-06-22T07:02:26;28.00;99.90
18894;DHT22;9579;49.488;8.226;2023-06-22T07:05:16;28.20;99.90
18894;DHT22;9579;49.488;8.226;2023-06-22T07:08:03;28.20;99.90
18894;DHT22;9579;49.488;8.226;2023-06-22T07:10:51;28.20;99.90
18894;DHT22;9579;49.488;8.226;2023-06-22T07:13:38;28.30;99.90
18894;DHT22;9579;49.488;8.226;2023-06-22T07:16:25;28.40;99.90
18894;DHT22;9579;49.488;8.226;2023-06-22T07:19:13;28.40;99.90
18894;DHT22;9579;49.488;8.226;2023-06-22T07:22:02;27.80;99.90
18894;DHT22;9579;49.488;8.226;2023-06-22T07:24:49;27.90;99.90
18894;DHT22;9579;49.488;8.226;2023-06-22T07:27:37;28.10;99.90
18894;DHT22;9579;49.488;8.226;2023-06-22T07:30:24;28.50;99.90
18894;DHT22;9579;49.488;8.226;2023-06-22T07:33:12;28.80;99.50
18894;DHT22;9579;49.488;8.226;2023-06-22T07:35:59;28.30;99.90
18894;DHT22;9579;49.488;8.226;2023-06-22T07:38:47;28.90;99.90
18894;DHT22;9579;49.488;8.226;2023-06-22T07:41:34;29.30;98.80
18894;DHT22;9579;49.488;8.226;2023-06-22T07:44:21;29.40;98.10
18894;DHT22;9579;49.488;8.226;2023-06-22T07:47:08;29.50;98.10
18894;DHT22;9579;49.488;8.226;2023-06-22T07:49:58;29.90;98.00
18894;DHT22;9579;49.488;8.226;2023-06-22T07:52:47;30.10;96.80
18894;DHT22;9579;49.488;8.226;2023-06-22T07:55:35;30.00;97.10
18894;DHT22;9579;49.488;8.226;2023-06-22T07:58:22;28.70;97.90
18894;DHT22;9579;49.488;8.226;2023-06-22T08:01:09;28.40;99.30
18894;DHT22;9579;49.488;8.226;2023-06-22T08:03:57;29.00;98.20
18894;DHT22;9579;49.488;8.226;2023-06-22T08:06:44;29.50;97.50
18894;DHT22;9579;49.488;8.226;2023-06-22T08:09:32;29.40;97.80
18894;DHT22;9579;49.488;8.226;2023-06-22T08:12:20;29.80;97.10
18894;DHT22;9579;49.488;8.226;2023-06-22T08:15:08;30.20;96.90
18894;DHT22;9579;49.488;8.226;2023-06-22T08:17:55;30.30;96.10
18894;DHT22;9579;49.488;8.226;2023-06-22T08:20:46;30.70;95.50
18894;DHT22;9579;49.488;8.226;2023-06-22T08:23:33;30.10;95.90
18894;DHT22;9579;49.488;8.226;2023-06-22T08:26:20;30.10;96.40
18894;DHT22;9579;49.488;8.226;2023-06-22T08:29:08;30.50;96.50
18894;DHT22;9579;49.488;8.226;2023-06-22T08:31:56;30.70;96.00
18894;DHT22;9579;49.488;8.226;2023-06-22T08:34:43;30.80;95.90
18894;DHT22;9579;49.488;8.226;2023-06-22T08:37:30;30.80;95.20
18894;DHT22;9579;49.488;8.226;2023-06-22T08:40:21;30.50;95.10
18894;DHT22;9579;49.488;8.226;2023-06-22T08:43:08;30.90;95.80
18894;DHT22;9579;49.488;8.226;2023-06-22T08:45:56;31.50;95.20
18894;DHT22;9579;49.488;8.226;2023-06-22T08:48:43;30.90;94.50
18894;DHT22;9579;49.488;8.226;2023-06-22T08:51:30;30.10;95.90
18894;DHT22;9579;49.488;8.226;2023-06-22T08:54:17;30.30;96.80
18894;DHT22;9579;49.488;8.226;2023-06-22T08:57:05;30.90;96.10
18894;DHT22;9579;49.488;8.226;2023-06-22T08:59:52;31.50;94.10
18894;DHT22;9579;49.488;8.226;2023-06-22T09:02:40;31.60;93.80
18894;DHT22;9579;49.488;8.226;2023-06-22T09:05:28;31.50;92.80
18894;DHT22;9579;49.488;8.226;2023-06-22T09:08:15;31.70;93.50
18894;DHT22;9579;49.488;8.226;2023-06-22T09:11:02;31.30;93.90
18894;DHT22;9579;49.488;8.226;2023-06-22T09:13:49;31.70;93.20
18894;DHT22;9579;49.488;8.226;2023-06-22T09:16:36;31.20;93.30
18894;DHT22;9579;49.488;8.226;2023-06-22T09:19:24;30.80;94.70
18894;DHT22;9579;49.488;8.226;2023-06-22T09:22:11;30.10;94.60
18894;DHT22;9579;49.488;8.226;2023-06-22T09:24:59;30.20;95.30
18894;DHT22;9579;49.488;8.226;2023-06-22T09:27:46;30.80;95.40
18894;DHT22;9579;49.488;8.226;2023-06-22T09:30:33;31.10;94.40
18894;DHT22;9579;49.488;8.226;2023-06-22T09:33:20;31.60;94.30
18894;DHT22;9579;49.488;8.226;2023-06-22T09:36:09;31.20;93.70
18894;DHT22;9579;49.488;8.226;2023-06-22T09:38:55;31.50;94.20
18894;DHT22;9579;49.488;8.226;2023-06-22T09:41:44;31.20;92.60
18894;DHT22;9579;49.488;8.226;2023-06-22T09:44:31;31.60;93.70
18894;DHT22;9579;49.488;8.226;2023-06-22T09:47:18;32.30;93.50
18894;DHT22;9579;49.488;8.226;2023-06-22T09:50:06;32.40;91.70
18894;DHT22;9579;49.488;8.226;2023-06-22T09:52:55;31.30;91.00
18894;DHT22;9579;49.488;8.226;2023-06-22T09:55:42;31.80;90.60
18894;DHT22;9579;49.488;8.226;2023-06-22T09:58:29;31.40;92.20
18894;DHT22;9579;49.488;8.226;2023-06-22T10:01:16;31.60;90.80
18894;DHT22;9579;49.488;8.226;2023-06-22T10:04:03;31.30;90.50
18894;DHT22;9579;49.488;8.226;2023-06-22T10:06:50;31.30;90.60
18894;DHT22;9579;49.488;8.226;2023-06-22T10:09:39;31.00;90.80
18894;DHT22;9579;49.488;8.226;2023-06-22T10:12:27;31.10;91.20
18894;DHT22;9579;49.488;8.226;2023-06-22T10:15:14;31.00;91.20
18894;DHT22;9579;49.488;8.226;2023-06-22T10:18:01;31.80;90.30
18894;DHT22;9579;49.488;8.226;2023-06-22T10:20:50;31.70;89.80
18894;DHT22;9579;49.488;8.226;2023-06-22T10:23:37;32.20;89.20
18894;DHT22;9579;49.488;8.226;2023-06-22T10:26:25;32.70;88.00
18894;DHT22;9579;49.488;8.226;2023-06-22T10:29:14;31.90;88.80
18894;DHT22;9579;49.488;8.226;2023-06-22T10:32:02;31.90;90.10
18894;DHT22;9579;49.488;8.226;2023-06-22T10:34:49;31.70;90.00
18894;DHT22;9579;49.488;8.226;2023-06-22T10:37:36;31.80;90.20
18894;DHT22;9579;49.488;8.226;2023-06-22T10:40:24;32.20;86.40
18894;DHT22;9579;49.488;8.226;2023-06-22T10:43:12;31.60;87.60
18894;DHT22;9579;49.488;8.226;2023-06-22T10:45:59;31.70;90.20
18894;DHT22;9579;49.488;8.226;2023-06-22T10:48:46;32.10;88.50
18894;DHT22;9579;49.488;8.226;2023-06-22T10:51:33;32.90;89.80
18894;DHT22;9579;49.488;8.226;2023-06-22T10:54:20;33.80;86.20
18894;DHT22;9579;49.488;8.226;2023-06-22T10:57:07;33.00;86.80
18894;DHT22;9579;49.488;8.226;2023-06-22T10:59:55;33.00;85.30
18894;DHT22;9579;49.488;8.226;2023-06-22T11:02:42;32.40;86.70
18894;DHT22;9579;49.488;8.226;2023-06-22T11:05:29;32.70;89.00
18894;DHT22;9579;49.488;8.226;2023-06-22T11:08:16;33.00;88.60
18894;DHT22;9579;49.488;8.226;2023-06-22T11:11:03;33.30;87.50
18894;DHT22;9579;49.488;8.226;2023-06-22T11:13:50;33.60;86.10
18894;DHT22;9579;49.488;8.226;2023-06-22T11:16:38;33.40;85.00
18894;DHT22;9579;49.488;8.226;2023-06-22T11:19:25;32.30;86.50
18894;DHT22;9579;49.488;8.226;2023-06-22T11:22:13;32.10;89.70
18894;DHT22;9579;49.488;8.226;2023-06-22T11:25:00;31.90;89.50
18894;DHT22;9579;49.488;8.226;2023-06-22T11:27:47;32.60;88.80
18894;DHT22;9579;49.488;8.226;2023-06-22T11:30:34;33.10;87.10
18894;DHT22;9579;49.488;8.226;2023-06-22T11:33:22;33.00;86.90
18894;DHT22;9579;49.488;8.226;2023-06-22T11:36:09;33.40;85.80
18894;DHT22;9579;49.488;8.226;2023-06-22T11:38:56;33.80;85.80
18894;DHT22;9579;49.488;8.226;2023-06-22T11:41:43;34.30;84.90
18894;DHT22;9579;49.488;8.226;2023-06-22T11:44:30;34.80;82.80
18894;DHT22;9579;49.488;8.226;2023-06-22T11:47:17;34.40;80.20
18894;DHT22;9579;49.488;8.226;2023-06-22T11:50:07;33.40;84.80
18894;DHT22;9579;49.488;8.226;2023-06-22T11:52:54;34.00;84.70
18894;DHT22;9579;49.488;8.226;2023-06-22T11:55:41;33.30;85.80
18894;DHT22;9579;49.488;8.226;2023-06-22T11:58:28;33.40;86.10
18894;DHT22;9579;49.488;8.226;2023-06-22T12:01:15;34.00;85.30
18894;DHT22;9579;49.488;8.226;2023-06-22T12:04:02;34.30;84.30
18894;DHT22;9579;49.488;8.226;2023-06-22T12:06:52;33.10;85.40
18894;DHT22;9579;49.488;8.226;2023-06-22T12:09:39;33.10;85.30
18894;DHT22;9579;49.488;8.226;2023-06-22T12:12:26;32.80;87.30
18894;DHT22;9579;49.488;8.226;2023-06-22T12:15:13;33.50;85.70
18894;DHT22;9579;49.488;8.226;2023-06-22T12:18:00;34.10;85.30
18894;DHT22;9579;49.488;8.226;2023-06-22T12:20:48;34.70;82.80
18894;DHT22;9579;49.488;8.226;2023-06-22T12:23:36;35.20;81.60
18894;DHT22;9579;49.488;8.226;2023-06-22T12:26:23;34.50;82.00
18894;DHT22;9579;49.488;8.226;2023-06-22T12:29:10;34.50;82.80
18894;DHT22;9579;49.488;8.226;2023-06-22T12:31:57;35.20;82.90
18894;DHT22;9579;49.488;8.226;2023-06-22T12:34:44;35.70;79.90
18894;DHT22;9579;49.488;8.226;2023-06-22T12:37:31;36.20;80.20
18894;DHT22;9579;49.488;8.226;2023-06-22T12:40:20;35.70;80.60
18894;DHT22;9579;49.488;8.226;2023-06-22T12:43:07;35.80;80.40
18894;DHT22;9579;49.488;8.226;2023-06-22T12:45:56;35.70;81.60
18894;DHT22;9579;49.488;8.226;2023-06-22T12:48:43;36.20;80.70
18894;DHT22;9579;49.488;8.226;2023-06-22T12:51:30;35.00;80.30
18894;DHT22;9579;49.488;8.226;2023-06-22T12:54:17;34.70;83.20
18894;DHT22;9579;49.488;8.226;2023-06-22T12:57:06;35.20;81.10
18894;DHT22;9579;49.488;8.226;2023-06-22T12:59:53;35.80;80.90
18894;DHT22;9579;49.488;8.226;2023-06-22T13:02:40;35.40;79.70
18894;DHT22;9579;49.488;8.226;2023-06-22T13:05:28;35.90;78.10
18894;DHT22;9579;49.488;8.226;2023-06-22T13:08:16;36.50;78.40
18894;DHT22;9579;49.488;8.226;2023-06-22T13:11:03;36.80;76.90
18894;DHT22;9579;49.488;8.226;2023-06-22T13:13:51;35.50;79.10
18894;DHT22;9579;49.488;8.226;2023-06-22T13:16:38;36.20;78.20
18894;DHT22;9579;49.488;8.226;2023-06-22T13:19:25;36.70;79.00
18894;DHT22;9579;49.488;8.226;2023-06-22T13:22:31;37.20;76.20
18894;DHT22;9579;49.488;8.226;2023-06-22T13:25:18;37.80;74.10
18894;DHT22;9579;49.488;8.226;2023-06-22T13:28:08;38.00;74.40
18894;DHT22;9579;49.488;8.226;2023-06-22T13:30:57;38.10;70.80
18894;DHT22;9579;49.488;8.226;2023-06-22T13:33:44;38.10;71.30
18894;DHT22;9579;49.488;8.226;2023-06-22T13:36:33;37.90;71.70
18894;DHT22;9579;49.488;8.226;2023-06-22T13:39:20;37.80;70.40
18894;DHT22;9579;49.488;8.226;2023-06-22T13:42:08;38.00;71.60
18894;DHT22;9579;49.488;8.226;2023-06-22T13:44:55;38.40;72.50
18894;DHT22;9579;49.488;8.226;2023-06-22T13:47:43;38.60;67.10
18894;DHT22;9579;49.488;8.226;2023-06-22T13:50:30;38.10;67.70
18894;DHT22;9579;49.488;8.226;2023-06-22T13:53:17;38.00;68.90
18894;DHT22;9579;49.488;8.226;2023-06-22T13:56:04;37.90;70.20
18894;DHT22;9579;49.488;8.226;2023-06-22T13:58:51;38.00;68.40
18894;DHT22;9579;49.488;8.226;2023-06-22T14:01:38;38.40;69.70
18894;DHT22;9579;49.488;8.226;2023-06-22T14:04:27;38.40;66.80
18894;DHT22;9579;49.488;8.226;2023-06-22T14:07:14;37.90;68.50
18894;DHT22;9579;49.488;8.226;2023-06-22T14:10:01;37.30;69.50
18894;DHT22;9579;49.488;8.226;2023-06-22T14:12:48;36.20;71.60
18894;DHT22;9579;49.488;8.226;2023-06-22T14:15:35;35.50;74.40
18894;DHT22;9579;49.488;8.226;2023-06-22T14:18:22;35.30;74.50
18894;DHT22;9579;49.488;8.226;2023-06-22T14:21:11;34.90;76.50
18894;DHT22;9579;49.488;8.226;2023-06-22T14:23:58;34.90;77.80
18894;DHT22;9579;49.488;8.226;2023-06-22T14:26:45;34.80;77.90
18894;DHT22;9579;49.488;8.226;2023-06-22T14:29:31;34.20;78.90
18894;DHT22;9579;49.488;8.226;2023-06-22T14:32:18;34.60;79.60
18894;DHT22;9579;49.488;8.226;2023-06-22T14:35:06;34.90;79.50
18894;DHT22;9579;49.488;8.226;2023-06-22T14:37:54;35.20;78.70
18894;DHT22;9579;49.488;8.226;2023-06-22T14:40:41;34.90;79.40
18894;DHT22;9579;49.488;8.226;2023-06-22T14:43:28;34.40;80.30
18894;DHT22;9579;49.488;8.226;2023-06-22T14:46:16;34.10;81.20
18894;DHT22;9579;49.488;8.226;2023-06-22T14:49:03;33.10;82.20
18894;DHT22;9579;49.488;8.226;2023-06-22T14:51:50;33.30;83.60
18894;DHT22;9579;49.488;8.226;2023-06-22T14:54:39;33.60;83.70
18894;DHT22;9579;49.488;8.226;2023-06-22T14:57:26;33.60;83.70
18894;DHT22;9579;49.488;8.226;2023-06-22T15:00:13;33.60;85.00
18894;DHT22;9579;49.488;8.226;2023-06-22T15:03:00;34.20;85.10
18894;DHT22;9579;49.488;8.226;2023-06-22T15:05:48;34.40;83.10
18894;DHT22;9579;49.488;8.226;2023-06-22T15:08:37;34.40;84.40
18894;DHT22;9579;49.488;8.226;2023-06-22T15:11:25;34.30;83.40
18894;DHT22;9579;49.488;8.226;2023-06-22T15:14:13;34.40;84.10
18894;DHT22;9579;49.488;8.226;2023-06-22T15:17:00;34.70;83.50
18894;DHT22;9579;49.488;8.226;2023-06-22T15:19:47;34.60;83.10
18894;DHT22;9579;49.488;8.226;2023-06-22T15:22:34;34.10;83.50
18894;DHT22;9579;49.488;8.226;2023-06-22T15:25:21;33.40;85.10
18894;DHT22;9579;49.488;8.226;2023-06-22T15:28:09;32.90;86.80
18894;DHT22;9579;49.488;8.226;2023-06-22T15:30:56;32.50;88.30
18894;DHT22;9579;49.488;8.226;2023-06-22T15:33:43;32.40;89.20
18894;DHT22;9579;49.488;8.226;2023-06-22T15:36:30;32.20;89.70
18894;DHT22;9579;49.488;8.226;2023-06-22T15:39:19;32.20;89.60
18894;DHT22;9579;49.488;8.226;2023-06-22T15:42:06;32.30;90.20
18894;DHT22;9579;49.488;8.226;2023-06-22T15:44:55;32.00;89.40
18894;DHT22;9579;49.488;8.226;2023-06-22T15:47:42;31.90;89.80
18894;DHT22;9579;49.488;8.226;2023-06-22T15:50:29;32.00;89.90
18894;DHT22;9579;49.488;8.226;2023-06-22T15:53:16;32.00;90.10
18894;DHT22;9579;49.488;8.226;2023-06-22T15:56:03;31.80;90.40
18894;DHT22;9579;49.488;8.226;2023-06-22T15:58:55;31.70;90.20
18894;DHT22;9579;49.488;8.226;2023-06-22T16:01:43;31.70;90.10
18894;DHT22;9579;49.488;8.226;2023-06-22T16:04:30;31.80;83.50
18894;DHT22;9579;49.488;8.226;2023-06-22T16:07:17;31.90;80.00
18894;DHT22;9579;49.488;8.226;2023-06-22T16:10:05;31.80;78.90
18894;DHT22;9579;49.488;8.226;2023-06-22T16:12:53;31.90;80.10
18894;DHT22;9579;49.488;8.226;2023-06-22T16:15:40;31.80;80.60
18894;DHT22;9579;49.488;8.226;2023-06-22T16:18:28;31.60;82.30
18894;DHT22;9579;49.488;8.226;2023-06-22T16:21:15;31.40;83.30
18894;DHT22;9579;49.488;8.226;2023-06-22T16:24:03;31.40;83.70
18894;DHT22;9579;49.488;8.226;2023-06-22T16:26:50;31.30;84.80
18894;DHT22;9579;49.488;8.226;2023-06-22T16:29:37;30.40;91.80
18894;DHT22;9579;49.488;8.226;2023-06-22T16:32:24;28.90;94.10
18894;DHT22;9579;49.488;8.226;2023-06-22T16:35:14;27.90;94.80
18894;DHT22;9579;49.488;8.226;2023-06-22T16:38:01;27.10;97.00
18894;DHT22;9579;49.488;8.226;2023-06-22T16:40:48;26.80;97.00
18894;DHT22;9579;49.488;8.226;2023-06-22T16:43:36;26.60;96.20
18894;DHT22;9579;49.488;8.226;2023-06-22T16:46:23;26.60;96.70
18894;DHT22;9579;49.488;8.226;2023-06-22T16:49:10;26.60;97.00
18894;DHT22;9579;49.488;8.226;2023-06-22T16:51:59;26.60;99.10
18894;DHT22;9579;49.488;8.226;2023-06-22T16:54:46;26.80;97.80
18894;DHT22;9579;49.488;8.226;2023-06-22T16:57:34;26.80;97.00
18894;DHT22;9579;49.488;8.226;2023-06-22T17:00:21;27.20;97.10
18894;DHT22;9579;49.488;8.226;2023-06-22T17:03:12;27.40;97.00
18894;DHT22;9579;49.488;8.226;2023-06-22T17:06:03;27.60;96.80
18894;DHT22;9579;49.488;8.226;2023-06-22T17:08:51;27.80;96.60
18894;DHT22;9579;49.488;8.226;2023-06-22T17:11:40;27.80;96.70
18894;DHT22;9579;49.488;8.226;2023-06-22T17:14:27;27.80;96.80
18894;DHT22;9579;49.488;8.226;2023-06-22T17:17:16;27.90;97.30
18894;DHT22;9579;49.488;8.226;2023-06-22T17:20:04;28.00;96.80
18894;DHT22;9579;49.488;8.226;2023-06-22T17:22:51;28.10;95.70
18894;DHT22;9579;49.488;8.226;2023-06-22T17:25:41;28.10;95.30
18894;DHT22;9579;49.488;8.226;2023-06-22T17:28:47;27.90;94.60
18894;DHT22;9579;49.488;8.226;2023-06-22T17:31:38;27.90;94.70
18894;DHT22;9579;49.488;8.226;2023-06-22T17:34:27;27.90;94.60
18894;DHT22;9579;49.488;8.226;2023-06-22T17:37:15;27.90;94.70
18894;DHT22;9579;49.488;8.226;2023-06-22T17:40:02;27.90;94.20
18894;DHT22;9579;49.488;8.226;2023-06-22T17:42:51;27.90;94.40
18894;DHT22;9579;49.488;8.226;2023-06-22T17:45:41;28.00;94.40
18894;DHT22;9579;49.488;8.226;2023-06-22T17:48:30;27.90;94.50
18894;DHT22;9579;49.488;8.226;2023-06-22T17:51:18;27.90;94.60
18894;DHT22;9579;49.488;8.226;2023-06-22T17:54:05;28.10;94.60
18894;DHT22;9579;49.488;8.226;2023-06-22T17:56:52;28.10;96.30